createdAt,value
2022-10-03T00:01:36.412Z,7.17
2022-10-03T00:04:40.786Z,5.20
2022-10-03T00:07:32.341Z,5.70
2022-10-03T00:10:17.855Z,6.47
2022-10-03T00:13:08.832Z,7.00
2022-10-03T00:16:13.895Z,8.07
2022-10-03T00:19:05.831Z,7.47
2022-10-03T00:21:38.252Z,5.67
2022-10-03T00:24:34.056Z,4.77
2022-10-03T00:27:33.019Z,6.63
2022-10-03T00:30:19.159Z,6.57
2022-10-03T00:33:18.107Z,5.37
2022-10-03T00:35:52.124Z,3.80
2022-10-03T00:39:05.961Z,4.30
2022-10-03T00:42:01.887Z,3.67
2022-10-03T00:45:03.148Z,4.03
2022-10-03T00:48:08.172Z,4.37
2022-10-03T00:51:25.600Z,5.27
2022-10-03T00:54:11.239Z,5.93
2022-10-03T00:57:17.652Z,7.27
2022-10-03T01:00:09.058Z,5.97
2022-10-03T01:03:27.138Z,6.80
2022-10-03T01:06:39.451Z,6.47
2022-10-03T01:09:33.853Z,5.60
2022-10-03T01:12:22.725Z,5.70
2022-10-03T01:15:27.154Z,6.20
2022-10-03T01:18:27.490Z,5.97
2022-10-03T01:21:28.696Z,5.60
2022-10-03T01:24:32.996Z,5.83
2022-10-03T01:27:13.635Z,5.97
2022-10-03T01:30:24.429Z,6.20
2022-10-03T01:33:10.638Z,6.50
2022-10-03T01:35:48.276Z,6.40
2022-10-03T01:38:25.405Z,5.70
2022-10-03T01:41:09.232Z,6.00
2022-10-03T01:43:50.368Z,6.77
2022-10-03T01:46:33.252Z,5.73
2022-10-03T01:49:02.687Z,6.67
2022-10-03T01:52:03.409Z,6.80
2022-10-03T01:54:39.880Z,5.50
2022-10-03T01:57:21.931Z,6.67
2022-10-03T02:00:01.526Z,6.30
2022-10-03T02:03:06.090Z,5.93
2022-10-03T02:06:20.448Z,6.10
2022-10-03T02:09:15.546Z,6.00
2022-10-03T02:12:29.947Z,6.53
2022-10-03T02:15:14.347Z,6.17
2022-10-03T02:17:52.104Z,6.10
2022-10-03T02:20:33.700Z,6.27
2022-10-03T02:23:01.043Z,6.17
2022-10-03T02:25:36.453Z,6.40
2022-10-03T02:28:44.953Z,6.53
2022-10-03T02:31:56.824Z,6.00
2022-10-03T02:35:03.044Z,5.77
2022-10-03T02:37:58.088Z,5.83
2022-10-03T02:41:11.375Z,6.43
2022-10-03T02:44:07.820Z,6.40
2022-10-03T02:47:30.752Z,6.50
2022-10-03T02:50:51.461Z,5.70
2022-10-03T02:53:47.181Z,5.87
2022-10-03T02:56:57.771Z,6.30
2022-10-03T02:59:55.572Z,6.17
2022-10-03T03:02:44.224Z,5.70
2022-10-03T03:05:57.201Z,6.10
2022-10-03T03:09:07.085Z,6.40
2022-10-03T03:12:13.894Z,5.77
2022-10-03T03:15:11.518Z,5.40
2022-10-03T03:17:55.091Z,5.23
2022-10-03T03:20:41.151Z,5.93
2022-10-03T03:23:47.702Z,5.50
2022-10-03T03:26:29.601Z,5.43
2022-10-03T03:29:38.309Z,5.80
2022-10-03T03:32:31.103Z,5.37
2022-10-03T03:35:25.655Z,5.80
2022-10-03T03:38:14.869Z,5.50
2022-10-03T03:41:14.047Z,5.40
2022-10-03T03:43:59.358Z,5.43
2022-10-03T03:46:52.516Z,5.20
2022-10-03T03:49:50.963Z,5.37
2022-10-03T03:53:02.955Z,5.57
2022-10-03T03:56:02.954Z,5.00
2022-10-03T03:58:51.341Z,5.70
2022-10-03T04:02:26.944Z,5.80
2022-10-03T04:05:12.629Z,6.33
2022-10-03T04:08:11.046Z,5.93
2022-10-03T04:11:01.985Z,5.40
2022-10-03T04:13:50.004Z,5.33
2022-10-03T04:17:14.248Z,6.07
2022-10-03T04:20:04.302Z,5.80
2022-10-03T04:22:58.479Z,5.60
2022-10-03T04:26:28.536Z,5.53
2022-10-03T04:29:35.479Z,5.57
2022-10-03T04:32:33.005Z,5.63
2022-10-03T04:35:34.877Z,5.80
2022-10-03T04:38:26.351Z,5.80
2022-10-03T04:41:18.951Z,5.70
2022-10-03T04:44:05.544Z,6.10
2022-10-03T04:47:25.945Z,5.90
2022-10-03T04:50:19.593Z,5.22
2022-10-03T04:53:13.649Z,5.60
2022-10-03T04:56:29.751Z,5.60
2022-10-03T04:59:36.488Z,5.60
2022-10-03T05:02:23.117Z,5.80
2022-10-03T05:05:19.974Z,6.15
2022-10-03T05:07:55.573Z,6.03
2022-10-03T05:10:47.056Z,6.67
2022-10-03T05:13:44.872Z,12.03
2022-10-03T05:16:14.688Z,13.60
2022-10-03T05:19:28.485Z,13.88
2022-10-03T05:22:25.142Z,11.80
2022-10-03T05:24:58.276Z,10.50
2022-10-03T05:27:24.983Z,11.75
2022-10-03T05:30:03.621Z,14.20
2022-10-03T05:32:56.917Z,10.88
2022-10-03T05:36:02.252Z,11.35
2022-10-03T05:38:53.152Z,10.75
2022-10-03T05:41:32.215Z,11.93
2022-10-03T05:44:01.648Z,12.27
2022-10-03T05:46:57.443Z,11.65
2022-10-03T05:50:28.454Z,13.50
2022-10-03T05:53:01.022Z,12.85
2022-10-03T05:55:53.617Z,14.40
2022-10-03T05:58:51.409Z,13.88
2022-10-03T06:01:51.398Z,14.23
2022-10-03T06:05:18.855Z,14.25
2022-10-03T06:08:06.732Z,12.43
2022-10-03T06:11:11.607Z,14.50
2022-10-03T06:14:49.236Z,14.45
2022-10-03T06:17:43.428Z,14.10
2022-10-03T06:20:41.317Z,14.32
2022-10-03T06:23:28.858Z,13.85
2022-10-03T06:26:10.655Z,14.55
2022-10-03T06:29:11.241Z,14.82
2022-10-03T06:32:32.004Z,14.48
2022-10-03T06:35:36.880Z,13.50
2022-10-03T06:38:44.985Z,13.50
2022-10-03T06:42:07.069Z,13.65
2022-10-03T06:44:41.127Z,13.90
2022-10-03T06:47:58.384Z,13.10
2022-10-03T06:50:54.890Z,14.73
2022-10-03T06:53:48.268Z,14.13
2022-10-03T06:56:55.118Z,14.05
2022-10-03T07:00:06.622Z,13.52
2022-10-03T07:03:11.231Z,13.98
2022-10-03T07:06:11.709Z,13.82
2022-10-03T07:09:33.640Z,12.07
2022-10-03T07:12:33.630Z,12.98
2022-10-03T07:15:50.266Z,12.13
2022-10-03T07:18:48.625Z,12.18
2022-10-03T07:21:47.904Z,12.05
2022-10-03T07:24:33.113Z,13.02
2022-10-03T07:27:27.786Z,11.45
2022-10-03T07:30:24.193Z,13.50
2022-10-03T07:33:21.725Z,12.23
2022-10-03T07:36:48.814Z,11.50
2022-10-03T07:40:03.628Z,13.23
2022-10-03T07:43:03.689Z,11.82
2022-10-03T07:46:00.895Z,11.23
2022-10-03T07:49:30.988Z,12.57
2022-10-03T07:52:57.295Z,12.18
2022-10-03T07:55:42.770Z,11.65
2022-10-03T07:58:26.200Z,12.65
2022-10-03T08:01:29.241Z,11.93
2022-10-03T08:04:30.127Z,10.68
2022-10-03T08:08:02.663Z,12.20
2022-10-03T08:11:14.730Z,12.23
2022-10-03T08:14:01.429Z,11.73
2022-10-03T08:16:49.251Z,10.73
2022-10-03T08:19:59.763Z,11.27
2022-10-03T08:22:54.064Z,11.55
2022-10-03T08:25:55.508Z,10.68
2022-10-03T08:28:43.949Z,10.80
2022-10-03T08:31:55.296Z,10.55
2022-10-03T08:34:59.051Z,9.50
2022-10-03T08:38:01.500Z,9.00
2022-10-03T08:40:39.960Z,9.52
2022-10-03T08:44:02.248Z,10.40
2022-10-03T08:47:02.293Z,8.52
2022-10-03T08:50:36.007Z,8.82
2022-10-03T08:53:55.338Z,8.52
2022-10-03T08:56:57.621Z,7.68
2022-10-03T08:59:33.168Z,7.00
2022-10-03T09:03:01.216Z,7.28
2022-10-03T09:06:24.501Z,6.65
2022-10-03T09:09:16.476Z,6.20
2022-10-03T09:12:16.995Z,6.30
2022-10-03T09:15:00.819Z,5.63
2022-10-03T09:18:12.465Z,5.75
2022-10-03T09:21:17.821Z,6.32
2022-10-03T09:24:20.319Z,4.47
2022-10-03T09:27:08.166Z,4.82
2022-10-03T09:30:10.680Z,4.65
2022-10-03T09:33:02.436Z,4.95
2022-10-03T09:35:50.097Z,4.75
2022-10-03T09:38:58.216Z,3.90
2022-10-03T09:42:00.304Z,3.78
2022-10-03T09:44:29.724Z,3.58
2022-10-03T09:47:33.851Z,3.65
2022-10-03T09:50:47.616Z,2.60
2022-10-03T09:53:38.574Z,2.03
2022-10-03T09:57:00.279Z,1.50
2022-10-03T09:59:58.775Z,1.75
2022-10-03T10:03:03.352Z,1.83
2022-10-03T10:05:45.083Z,1.80
2022-10-03T10:08:33.699Z,1.25
2022-10-03T10:11:20.589Z,1.35
2022-10-03T10:14:15.004Z,1.60
2022-10-03T10:17:28.662Z,1.13
2022-10-03T10:20:51.904Z,2.03
2022-10-03T10:23:33.385Z,1.30
2022-10-03T10:26:37.636Z,1.52
2022-10-03T10:29:52.258Z,2.35
2022-10-03T10:33:03.685Z,0.90
2022-10-03T10:35:51.975Z,1.10
2022-10-03T10:39:20.743Z,1.70
2022-10-03T10:42:30.549Z,1.13
2022-10-03T10:45:48.356Z,1.00
2022-10-03T10:48:58.055Z,1.30
2022-10-03T10:51:45.182Z,1.83
2022-10-03T10:54:49.694Z,1.63
2022-10-03T10:57:55.825Z,1.38
2022-10-03T11:00:39.422Z,1.60
2022-10-03T11:04:00.439Z,2.15
2022-10-03T11:07:27.672Z,2.45
2022-10-03T11:10:31.915Z,3.30
2022-10-03T11:13:37.641Z,2.65
2022-10-03T11:16:42.530Z,3.08
2022-10-03T11:19:43.393Z,2.60
2022-10-03T11:22:19.050Z,3.03
2022-10-03T11:25:23.116Z,3.40
2022-10-03T11:28:30.594Z,3.08
2022-10-03T11:31:33.342Z,3.10
2022-10-03T11:34:57.837Z,3.10
2022-10-03T11:37:46.118Z,2.80
2022-10-03T11:40:56.483Z,2.75
2022-10-03T11:43:37.992Z,2.97
2022-10-03T11:46:46.016Z,2.72
2022-10-03T11:49:38.979Z,2.63
2022-10-03T11:52:56.835Z,2.78
2022-10-03T11:55:48.235Z,2.83
2022-10-03T11:58:41.776Z,2.92
2022-10-03T12:02:14.680Z,2.50
2022-10-03T12:05:02.634Z,2.13
2022-10-03T12:08:16.852Z,2.30
2022-10-03T12:11:16.119Z,2.08
2022-10-03T12:14:10.908Z,2.40
2022-10-03T12:17:20.433Z,2.05
2022-10-03T12:20:17.776Z,2.03
2022-10-03T12:22:51.760Z,2.22
2022-10-03T12:25:30.213Z,2.17
2022-10-03T12:28:21.414Z,2.10
2022-10-03T12:31:18.805Z,2.58
2022-10-03T12:33:51.650Z,2.40
2022-10-03T12:36:56.570Z,2.28
2022-10-03T12:39:40.256Z,2.33
2022-10-03T12:42:41.304Z,2.30
2022-10-03T12:45:37.591Z,2.30
2022-10-03T12:48:26.641Z,2.53
2022-10-03T12:51:24.445Z,2.65
2022-10-03T12:54:15.496Z,3.08
2022-10-03T12:57:01.216Z,2.92
2022-10-03T12:59:44.820Z,2.80
2022-10-03T13:02:36.589Z,2.78
2022-10-03T13:05:45.097Z,3.28
2022-10-03T13:08:46.837Z,3.20
2022-10-03T13:11:32.519Z,3.38
2022-10-03T13:14:33.067Z,3.55
2022-10-03T13:17:20.896Z,3.35
2022-10-03T13:20:12.308Z,3.00
2022-10-03T13:23:03.321Z,3.42
2022-10-03T13:25:35.257Z,3.40
2022-10-03T13:28:33.021Z,4.07
2022-10-03T13:31:24.882Z,4.07
2022-10-03T13:33:57.820Z,3.72
2022-10-03T13:36:39.797Z,3.65
2022-10-03T13:39:46.989Z,3.70
2022-10-03T13:42:22.409Z,3.78
2022-10-03T13:45:00.748Z,3.83
2022-10-03T13:48:04.681Z,3.67
2022-10-03T13:50:45.104Z,4.43
2022-10-03T13:53:39.465Z,3.83
2022-10-03T13:56:45.445Z,4.22
2022-10-03T13:59:29.416Z,3.50
2022-10-03T14:02:10.166Z,3.70
2022-10-03T14:04:52.064Z,3.47
2022-10-03T14:07:37.096Z,3.83
2022-10-03T14:10:03.753Z,3.35
2022-10-03T14:13:22.041Z,3.35
2022-10-03T14:15:58.752Z,3.35
2022-10-03T14:19:21.581Z,2.90
2022-10-03T14:22:35.632Z,2.92
2022-10-03T14:25:30.323Z,3.15
2022-10-03T14:28:24.310Z,2.83
2022-10-03T14:31:18.805Z,2.90
2022-10-03T14:34:04.444Z,2.95
2022-10-03T14:37:18.524Z,2.80
2022-10-03T14:40:11.877Z,2.85
2022-10-03T14:43:05.006Z,2.55
2022-10-03T14:45:42.870Z,2.42
2022-10-03T14:48:22.496Z,2.85
2022-10-03T14:50:54.706Z,1.92
2022-10-03T14:53:30.404Z,2.42
2022-10-03T14:56:11.703Z,2.50
2022-10-03T14:59:00.308Z,2.17
2022-10-03T15:01:28.765Z,2.30
2022-10-03T15:04:00.601Z,1.77
2022-10-03T15:06:53.544Z,2.10
2022-10-03T15:09:42.993Z,1.98
2022-10-03T15:12:31.565Z,1.95
2022-10-03T15:15:07.395Z,2.10
2022-10-03T15:17:53.568Z,2.17
2022-10-03T15:20:42.404Z,1.98
2022-10-03T15:23:45.165Z,2.03
2022-10-03T15:26:24.664Z,2.17
2022-10-03T15:28:59.304Z,2.58
2022-10-03T15:31:39.119Z,2.60
2022-10-03T15:34:31.680Z,1.95
2022-10-03T15:37:10.810Z,2.35
2022-10-03T15:39:42.041Z,2.40
2022-10-03T15:42:08.665Z,2.63
2022-10-03T15:44:50.236Z,3.20
2022-10-03T15:47:29.791Z,2.28
2022-10-03T15:50:07.490Z,2.30
2022-10-03T15:52:45.920Z,1.90
2022-10-03T15:55:56.632Z,2.25
2022-10-03T15:58:28.895Z,2.00
2022-10-03T16:01:11.462Z,2.40
2022-10-03T16:03:49.468Z,2.10
2022-10-03T16:06:57.159Z,2.00
2022-10-03T16:09:52.117Z,2.67
2022-10-03T16:12:34.101Z,2.00
2022-10-03T16:15:13.881Z,2.38
2022-10-03T16:17:56.257Z,2.42
2022-10-03T16:20:41.485Z,2.30
2022-10-03T16:23:19.408Z,2.45
2022-10-03T16:25:56.630Z,2.25
2022-10-03T16:28:40.746Z,2.22
2022-10-03T16:31:37.528Z,2.40
2022-10-03T16:34:14.460Z,2.30
2022-10-03T16:36:50.415Z,2.17
2022-10-03T16:39:34.816Z,2.28
2022-10-03T16:42:29.052Z,2.22
2022-10-03T16:44:58.598Z,2.55
2022-10-03T16:47:44.207Z,2.22
2022-10-03T16:50:25.513Z,2.67
2022-10-03T16:52:58.536Z,2.63
2022-10-03T16:55:49.150Z,2.08
2022-10-03T16:58:31.387Z,2.50
2022-10-03T17:01:33.381Z,2.20
2022-10-03T17:04:22.889Z,2.28
2022-10-03T17:06:55.265Z,2.88
2022-10-03T17:09:27.980Z,2.20
2022-10-03T17:11:58.941Z,3.42
2022-10-03T17:14:35.509Z,2.25
2022-10-03T17:17:29.247Z,2.53
2022-10-03T17:20:07.731Z,2.65
2022-10-03T17:22:57.391Z,3.33
2022-10-03T17:25:57.076Z,2.53
2022-10-03T17:28:49.623Z,3.10
2022-10-03T17:31:46.139Z,4.80
2022-10-03T17:34:23.367Z,4.28
2022-10-03T17:37:08.640Z,9.48
2022-10-03T17:39:53.229Z,4.10
2022-10-03T17:42:43.624Z,3.50
2022-10-03T17:45:33.255Z,3.92
2022-10-03T17:48:12.053Z,3.58
2022-10-03T17:51:26.428Z,3.13
2022-10-03T17:53:57.851Z,3.20
2022-10-03T17:56:31.519Z,3.25
2022-10-03T17:59:05.196Z,3.33
2022-10-03T18:01:44.477Z,3.20
2022-10-03T18:04:28.967Z,3.53
2022-10-03T18:07:09.416Z,3.90
2022-10-03T18:09:46.594Z,3.35
2022-10-03T18:12:29.980Z,3.58
2022-10-03T18:15:19.452Z,4.13
2022-10-03T18:18:13.715Z,6.30
2022-10-03T18:21:05.361Z,6.93
2022-10-03T18:24:06.401Z,7.35
2022-10-03T18:26:54.269Z,8.70
2022-10-03T18:29:48.455Z,8.80
2022-10-03T18:32:25.248Z,9.48
2022-10-03T18:35:23.828Z,8.80
2022-10-03T18:38:15.888Z,9.45
2022-10-03T18:40:57.530Z,5.35
2022-10-03T18:43:31.230Z,4.47
2022-10-03T18:46:10.408Z,4.43
2022-10-03T18:49:28.282Z,3.95
2022-10-03T18:52:20.249Z,4.20
2022-10-03T18:55:11.816Z,4.43
2022-10-03T18:58:08.230Z,7.13
2022-10-03T19:00:50.694Z,11.18
2022-10-03T19:03:24.811Z,10.80
2022-10-03T19:06:00.280Z,10.98
2022-10-03T19:09:15.899Z,10.20
2022-10-03T19:12:21.384Z,9.73
2022-10-03T19:15:38.652Z,9.73
2022-10-03T19:18:27.918Z,9.30
2022-10-03T19:21:01.459Z,10.50
2022-10-03T19:23:42.800Z,11.88
2022-10-03T19:26:23.557Z,12.98
2022-10-03T19:28:58.079Z,13.15
2022-10-03T19:31:38.642Z,12.75
2022-10-03T19:34:35.624Z,11.85
2022-10-03T19:37:05.909Z,10.35
2022-10-03T19:39:33.870Z,10.95
2022-10-03T19:42:31.288Z,10.82
2022-10-03T19:44:59.916Z,10.32
2022-10-03T19:47:40.499Z,9.63
2022-10-03T19:50:33.211Z,9.25
2022-10-03T19:53:01.240Z,12.70
2022-10-03T19:55:38.936Z,12.40
2022-10-03T19:58:08.580Z,12.30
2022-10-03T20:00:38.890Z,12.85
2022-10-03T20:03:23.091Z,11.48
2022-10-03T20:06:14.589Z,9.70
2022-10-03T20:09:00.307Z,10.57
2022-10-03T20:11:48.750Z,10.53
2022-10-03T20:14:29.060Z,10.20
2022-10-03T20:17:04.061Z,10.00
2022-10-03T20:19:54.469Z,9.43
2022-10-03T20:22:32.020Z,18.17
2022-10-03T20:25:00.661Z,13.43
2022-10-03T20:27:53.321Z,12.17
2022-10-03T20:30:42.945Z,9.70
2022-10-03T20:33:32.393Z,9.83
2022-10-03T20:36:22.966Z,9.60
2022-10-03T20:39:30.110Z,13.63
2022-10-03T20:42:05.289Z,13.90
2022-10-03T20:44:59.692Z,11.63
2022-10-03T20:47:48.536Z,10.90
2022-10-03T20:50:26.587Z,10.90
2022-10-03T20:52:59.556Z,14.43
2022-10-03T20:56:06.504Z,13.87
2022-10-03T20:58:56.677Z,10.00
2022-10-03T21:01:29.941Z,11.87
2022-10-03T21:04:16.023Z,10.30
2022-10-03T21:06:58.047Z,9.53
2022-10-03T21:09:44.702Z,8.67
2022-10-03T21:12:45.279Z,8.70
2022-10-03T21:15:40.521Z,9.53
2022-10-03T21:18:19.532Z,9.80
2022-10-03T21:20:51.524Z,11.53
2022-10-03T21:23:24.324Z,12.53
2022-10-03T21:25:58.614Z,11.97
2022-10-03T21:28:35.287Z,10.60
2022-10-03T21:31:43.561Z,10.97
2022-10-03T21:34:37.698Z,10.97
2022-10-03T21:37:09.615Z,11.27
2022-10-03T21:40:11.356Z,10.83
2022-10-03T21:43:14.039Z,11.57
2022-10-03T21:46:03.574Z,11.10
2022-10-03T21:48:41.872Z,11.00
2022-10-03T21:51:26.627Z,10.87
2022-10-03T21:54:05.585Z,10.57
2022-10-03T21:57:14.915Z,10.10
2022-10-03T22:00:00.095Z,8.83
2022-10-03T22:02:47.951Z,9.20
2022-10-03T22:05:35.757Z,8.90
2022-10-03T22:08:29.533Z,8.83
2022-10-03T22:11:44.751Z,10.00
2022-10-03T22:14:43.413Z,10.30
2022-10-03T22:17:26.273Z,8.57
2022-10-03T22:20:21.880Z,9.23
2022-10-03T22:23:12.387Z,10.47
2022-10-03T22:25:49.499Z,9.03
2022-10-03T22:28:35.435Z,8.40
2022-10-03T22:31:31.817Z,8.83
2022-10-03T22:34:25.572Z,8.37
2022-10-03T22:36:52.441Z,7.47
2022-10-03T22:39:21.810Z,7.93
2022-10-03T22:41:57.580Z,8.13
2022-10-03T22:44:31.174Z,9.07
2022-10-03T22:47:11.101Z,8.67
2022-10-03T22:49:45.081Z,10.20
2022-10-03T22:52:24.903Z,9.27
2022-10-03T22:54:55.085Z,10.23
2022-10-03T22:57:25.154Z,10.03
2022-10-03T23:00:09.025Z,9.20
2022-10-03T23:03:04.980Z,8.10
2022-10-03T23:05:40.465Z,8.33
2022-10-03T23:08:32.119Z,7.80
2022-10-03T23:11:15.468Z,7.43
2022-10-03T23:13:44.774Z,7.67
2022-10-03T23:16:44.363Z,6.90
2022-10-03T23:19:52.688Z,8.13
2022-10-03T23:22:29.386Z,7.70
2022-10-03T23:25:06.994Z,8.07
2022-10-03T23:27:50.998Z,7.40
2022-10-03T23:30:17.742Z,9.03
2022-10-03T23:32:47.504Z,8.40
2022-10-03T23:35:31.062Z,8.60
2022-10-03T23:37:59.972Z,7.93
2022-10-03T23:40:46.981Z,8.27
2022-10-03T23:43:49.984Z,8.13
2022-10-03T23:46:24.241Z,8.47
2022-10-03T23:48:58.914Z,9.77
2022-10-03T23:51:35.870Z,8.77
2022-10-03T23:54:07.969Z,8.33
2022-10-03T23:56:49.724Z,8.40
2022-10-03T23:59:16.568Z,8.87
